createdAt,value
2023-03-05T00:01:22.261Z,99432.31
2023-03-05T00:03:51.853Z,99429.73
2023-03-05T00:06:24.688Z,99430.41
2023-03-05T00:08:52.976Z,99431.30
2023-03-05T00:11:20.649Z,99430.58
2023-03-05T00:13:48.018Z,99435.59
2023-03-05T00:16:15.916Z,99432.56
2023-03-05T00:18:43.375Z,99427.66
2023-03-05T00:21:27.336Z,99422.46
2023-03-05T00:23:55.140Z,99422.75
2023-03-05T00:26:24.402Z,99421.30
2023-03-05T00:28:52.082Z,99418.10
2023-03-05T00:31:25.294Z,99414.00
2023-03-05T00:33:54.422Z,99415.05
2023-03-05T00:36:21.805Z,99413.88
2023-03-05T00:38:48.596Z,99414.27
2023-03-05T00:41:15.446Z,99415.52
2023-03-05T00:43:42.942Z,99415.80
2023-03-05T00:46:09.897Z,99416.75
2023-03-05T00:48:36.855Z,99416.81
2023-03-05T00:51:04.021Z,99416.91
2023-03-05T00:53:31.108Z,99417.22
2023-03-05T00:55:58.963Z,99414.82
2023-03-05T00:58:26.324Z,99413.10
2023-03-05T01:00:56.696Z,99413.08
2023-03-05T01:03:23.420Z,99409.85
2023-03-05T01:05:50.278Z,99408.86
2023-03-05T01:08:17.103Z,99409.81
2023-03-05T01:10:43.964Z,99407.61
2023-03-05T01:13:11.176Z,99411.71
2023-03-05T01:15:37.963Z,99409.73
2023-03-05T01:18:05.046Z,99413.59
2023-03-05T01:20:34.299Z,99411.49
2023-03-05T01:23:01.424Z,99412.59
2023-03-05T01:25:28.671Z,99412.48
2023-03-05T01:27:55.950Z,99408.98
2023-03-05T01:30:22.983Z,99412.16
2023-03-05T01:32:49.856Z,99409.97
2023-03-05T01:35:19.588Z,99405.58
2023-03-05T01:37:47.140Z,99405.83
2023-03-05T01:40:19.652Z,99405.94
2023-03-05T01:42:55.638Z,99410.64
2023-03-05T01:45:24.312Z,99409.36
2023-03-05T01:47:51.263Z,99414.98
2023-03-05T01:50:22.399Z,99412.45
2023-03-05T01:52:54.425Z,99413.27
2023-03-05T01:55:24.343Z,99415.07
2023-03-05T01:58:13.180Z,99414.52
2023-03-05T02:00:49.597Z,99412.66
2023-03-05T02:03:16.704Z,99416.23
2023-03-05T02:05:44.016Z,99416.36
2023-03-05T02:08:14.661Z,99418.35
2023-03-05T02:10:44.635Z,99419.67
2023-03-05T02:13:22.293Z,99418.07
2023-03-05T02:15:50.485Z,99421.52
2023-03-05T02:18:18.785Z,99428.21
2023-03-05T02:20:57.933Z,99427.23
2023-03-05T02:23:27.561Z,99427.28
2023-03-05T02:25:59.940Z,99429.47
2023-03-05T02:28:41.542Z,99434.42
2023-03-05T02:31:21.325Z,99443.78
2023-03-05T02:33:48.386Z,99442.02
2023-03-05T02:36:17.009Z,99446.89
2023-03-05T02:38:45.380Z,99441.62
2023-03-05T02:41:13.429Z,99444.02
2023-03-05T02:43:41.388Z,99446.79
2023-03-05T02:46:08.560Z,99441.77
2023-03-05T02:48:35.441Z,99446.73
2023-03-05T02:51:05.095Z,99446.16
2023-03-05T02:53:32.526Z,99448.05
2023-03-05T02:55:59.939Z,99450.98
2023-03-05T02:58:27.469Z,99447.80
2023-03-05T03:00:54.456Z,99450.04
2023-03-05T03:03:21.884Z,99450.91
2023-03-05T03:05:48.885Z,99459.56
2023-03-05T03:08:15.744Z,99454.59
2023-03-05T03:10:42.619Z,99452.55
2023-03-05T03:13:09.594Z,99457.59
2023-03-05T03:15:37.574Z,99455.82
2023-03-05T03:18:04.419Z,99452.83
2023-03-05T03:20:32.213Z,99452.33
2023-03-05T03:22:59.086Z,99453.13
2023-03-05T03:25:25.943Z,99450.02
2023-03-05T03:27:52.874Z,99450.91
2023-03-05T03:30:19.946Z,99451.38
2023-03-05T03:32:47.103Z,99453.79
2023-03-05T03:35:13.985Z,99456.43
2023-03-05T03:37:40.896Z,99456.70
2023-03-05T03:40:08.627Z,99454.22
2023-03-05T03:42:35.546Z,99453.98
2023-03-05T03:45:02.689Z,99452.21
2023-03-05T03:47:30.834Z,99457.29
2023-03-05T03:49:58.398Z,99456.89
2023-03-05T03:52:26.147Z,99462.47
2023-03-05T03:54:55.209Z,99466.00
2023-03-05T03:57:22.220Z,99466.45
2023-03-05T03:59:49.879Z,99465.76
2023-03-05T04:02:17.039Z,99464.34
2023-03-05T04:04:44.131Z,99463.79
2023-03-05T04:07:10.957Z,99463.13
2023-03-05T04:09:37.988Z,99464.66
2023-03-05T04:12:05.100Z,99466.86
2023-03-05T04:14:32.140Z,99471.79
2023-03-05T04:16:58.949Z,99469.20
2023-03-05T04:19:25.836Z,99468.23
2023-03-05T04:21:52.687Z,99472.77
2023-03-05T04:24:19.513Z,99471.13
2023-03-05T04:26:46.212Z,99478.34
2023-03-05T04:29:13.016Z,99485.66
2023-03-05T04:31:39.946Z,99492.14
2023-03-05T04:34:06.670Z,99493.82
2023-03-05T04:36:33.477Z,99495.88
2023-03-05T04:39:00.580Z,99500.59
2023-03-05T04:41:27.394Z,99503.38
2023-03-05T04:43:54.243Z,99506.14
2023-03-05T04:46:21.175Z,99510.84
2023-03-05T04:48:48.088Z,99507.35
2023-03-05T04:51:14.990Z,99508.27
2023-03-05T04:53:41.818Z,99508.27
2023-03-05T04:56:08.633Z,99508.27
2023-03-05T04:58:35.652Z,99507.76
2023-03-05T05:01:04.235Z,99510.19
2023-03-05T05:03:31.571Z,99519.23
2023-03-05T05:06:00.532Z,99523.11
2023-03-05T05:08:27.504Z,99524.70
2023-03-05T05:11:01.613Z,99522.88
2023-03-05T05:13:28.731Z,99523.35
2023-03-05T05:15:55.992Z,99521.92
2023-03-05T05:18:23.035Z,99527.48
2023-03-05T05:20:49.997Z,99532.01
2023-03-05T05:23:18.730Z,99534.50
2023-03-05T05:25:45.567Z,99535.02
2023-03-05T05:28:12.653Z,99542.71
2023-03-05T05:30:39.472Z,99543.09
2023-03-05T05:33:06.338Z,99540.66
2023-03-05T05:35:33.201Z,99545.11
2023-03-05T05:38:00.113Z,99546.32
2023-03-05T05:40:26.976Z,99543.91
2023-03-05T05:42:53.768Z,99548.00
2023-03-05T05:45:20.700Z,99547.75
2023-03-05T05:47:47.514Z,99550.41
2023-03-05T05:50:14.779Z,99545.59
2023-03-05T05:52:41.763Z,99549.55
2023-03-05T05:55:09.663Z,99549.54
2023-03-05T05:57:36.720Z,99557.63
2023-03-05T06:00:10.451Z,99547.64
2023-03-05T06:02:41.727Z,99547.73
2023-03-05T06:05:12.725Z,99552.42
2023-03-05T06:07:39.927Z,99552.34
2023-03-05T06:10:07.776Z,99552.80
2023-03-05T06:12:34.687Z,99554.18
2023-03-05T06:15:01.482Z,99561.66
2023-03-05T06:17:30.816Z,99561.96
2023-03-05T06:19:58.617Z,99561.52
2023-03-05T06:22:25.423Z,99564.45
2023-03-05T06:24:52.403Z,99566.59
2023-03-05T06:27:19.157Z,99575.94
2023-03-05T06:29:45.984Z,99578.70
2023-03-05T06:32:12.753Z,99569.17
2023-03-05T06:34:39.458Z,99567.73
2023-03-05T06:37:06.908Z,99570.84
2023-03-05T06:39:33.859Z,99566.90
2023-03-05T06:42:00.670Z,99573.42
2023-03-05T06:44:27.744Z,99577.78
2023-03-05T06:46:54.674Z,99580.68
2023-03-05T06:49:21.410Z,99579.15
2023-03-05T06:51:48.227Z,99573.02
2023-03-05T06:54:16.548Z,99575.02
2023-03-05T06:56:45.452Z,99576.34
2023-03-05T06:59:14.594Z,99577.45
2023-03-05T07:01:41.788Z,99579.38
2023-03-05T07:04:09.040Z,99577.58
2023-03-05T07:06:38.245Z,99576.18
2023-03-05T07:09:07.289Z,99577.90
2023-03-05T07:11:34.642Z,99584.20
2023-03-05T07:14:02.498Z,99584.12
2023-03-05T07:16:31.767Z,99589.71
2023-03-05T07:19:02.423Z,99587.64
2023-03-05T07:21:32.308Z,99588.92
2023-03-05T07:24:00.991Z,99589.59
2023-03-05T07:26:28.581Z,99591.14
2023-03-05T07:28:55.520Z,99595.82
2023-03-05T07:31:26.635Z,99591.64
2023-03-05T07:33:53.730Z,99591.34
2023-03-05T07:36:20.594Z,99592.63
2023-03-05T07:38:47.759Z,99592.77
2023-03-05T07:41:20.759Z,99598.63
2023-03-05T07:43:49.466Z,99597.65
2023-03-05T07:46:20.139Z,99597.42
2023-03-05T07:48:47.022Z,99599.69
2023-03-05T07:51:16.983Z,99595.11
2023-03-05T07:53:46.115Z,99595.31
2023-03-05T07:56:13.554Z,99597.70
2023-03-05T07:58:40.364Z,99602.31
2023-03-05T08:01:15.047Z,99603.41
2023-03-05T08:03:43.211Z,99604.35
2023-03-05T08:06:12.104Z,99605.52
2023-03-05T08:08:39.368Z,99605.48
2023-03-05T08:11:09.162Z,99610.30
2023-03-05T08:13:36.653Z,99603.25
2023-03-05T08:16:30.159Z,99603.64
2023-03-05T08:18:57.935Z,99602.06
2023-03-05T08:21:32.948Z,99602.91
2023-03-05T08:24:02.658Z,99602.61
2023-03-05T08:26:31.573Z,99593.71
2023-03-05T08:28:58.881Z,99591.30
2023-03-05T08:31:27.334Z,99591.94
2023-03-05T08:33:56.760Z,99587.77
2023-03-05T08:36:23.751Z,99589.89
2023-03-05T08:38:50.793Z,99593.21
2023-03-05T08:41:19.009Z,99589.49
2023-03-05T08:43:46.015Z,99585.67
2023-03-05T08:46:14.184Z,99588.61
2023-03-05T08:48:41.388Z,99589.23
2023-03-05T08:51:11.339Z,99590.02
2023-03-05T08:53:38.756Z,99592.71
2023-03-05T08:56:06.308Z,99591.73
2023-03-05T08:58:33.540Z,99590.52
2023-03-05T09:01:00.781Z,99591.64
2023-03-05T09:03:27.879Z,99587.34
2023-03-05T09:05:59.852Z,99587.00
2023-03-05T09:08:26.922Z,99585.89
2023-03-05T09:10:54.271Z,99589.13
2023-03-05T09:13:21.232Z,99582.24
2023-03-05T09:16:01.928Z,99581.55
2023-03-05T09:18:29.023Z,99579.48
2023-03-05T09:20:56.341Z,99578.36
2023-03-05T09:23:23.758Z,99577.70
2023-03-05T09:25:50.903Z,99576.25
2023-03-05T09:28:17.758Z,99579.69
2023-03-05T09:30:44.548Z,99578.01
2023-03-05T09:33:11.628Z,99579.73
2023-03-05T09:35:38.569Z,99568.65
2023-03-05T09:38:05.522Z,99566.33
2023-03-05T09:41:09.759Z,99569.58
2023-03-05T09:43:48.880Z,99570.15
2023-03-05T09:46:30.413Z,99568.95
2023-03-05T09:49:06.569Z,99566.23
2023-03-05T09:51:38.588Z,99567.59
2023-03-05T09:54:29.025Z,99563.15
2023-03-05T09:57:00.871Z,99561.38
2023-03-05T09:59:28.377Z,99560.16
2023-03-05T10:02:01.688Z,99561.47
2023-03-05T10:04:52.684Z,99557.90
2023-03-05T10:07:27.211Z,99556.73
2023-03-05T10:09:59.730Z,99553.18
2023-03-05T10:12:38.536Z,99552.63
2023-03-05T10:15:32.106Z,99549.65
2023-03-05T10:18:17.324Z,99545.57
2023-03-05T10:21:01.243Z,99542.98
2023-03-05T10:23:43.387Z,99538.93
2023-03-05T10:26:16.338Z,99538.08
2023-03-05T10:29:09.946Z,99536.77
2023-03-05T10:31:47.737Z,99535.11
2023-03-05T10:34:52.453Z,99531.75
2023-03-05T10:37:28.096Z,99531.55
2023-03-05T10:40:10.500Z,99524.50
2023-03-05T10:43:01.828Z,99523.84
2023-03-05T10:45:39.595Z,99521.54
2023-03-05T10:48:27.091Z,99519.71
2023-03-05T10:51:14.197Z,99517.09
2023-03-05T10:54:10.487Z,99518.36
2023-03-05T10:56:37.228Z,99512.77
2023-03-05T10:59:04.001Z,99510.69
2023-03-05T11:01:31.862Z,99503.02
2023-03-05T11:04:03.619Z,99497.86
2023-03-05T11:06:42.753Z,99497.69
2023-03-05T11:09:17.666Z,99499.89
2023-03-05T11:12:10.803Z,99493.75
2023-03-05T11:14:47.271Z,99494.83
2023-03-05T11:17:37.929Z,99494.14
2023-03-05T11:20:29.603Z,99485.22
2023-03-05T11:23:13.806Z,99484.19
2023-03-05T11:25:54.630Z,99486.02
2023-03-05T11:28:33.653Z,99483.52
2023-03-05T11:31:16.249Z,99475.77
2023-03-05T11:34:05.555Z,99475.37
2023-03-05T11:36:40.542Z,99474.80
2023-03-05T11:39:07.582Z,99468.96
2023-03-05T11:41:41.765Z,99466.89
2023-03-05T11:44:21.352Z,99469.41
2023-03-05T11:47:01.571Z,99464.09
2023-03-05T11:49:30.293Z,99460.45
2023-03-05T11:52:10.784Z,99457.61
2023-03-05T11:54:53.551Z,99455.80
2023-03-05T11:57:23.559Z,99438.83
2023-03-05T11:59:55.102Z,99449.07
2023-03-05T12:02:25.498Z,99449.68
2023-03-05T12:04:52.494Z,99449.57
2023-03-05T12:07:28.650Z,99445.97
2023-03-05T12:09:55.482Z,99445.81
2023-03-05T12:12:37.940Z,99441.86
2023-03-05T12:15:18.338Z,99436.69
2023-03-05T12:17:57.582Z,99435.91
2023-03-05T12:20:55.425Z,99429.79
2023-03-05T12:23:22.533Z,99425.21
2023-03-05T12:25:52.511Z,99421.05
2023-03-05T12:28:31.454Z,99418.52
2023-03-05T12:31:19.992Z,99418.29
2023-03-05T12:33:46.806Z,99417.94
2023-03-05T12:36:16.671Z,99419.39
2023-03-05T12:38:46.252Z,99416.38
2023-03-05T12:41:22.456Z,99406.67
2023-03-05T12:44:04.642Z,99409.01
2023-03-05T12:46:39.694Z,99406.56
2023-03-05T12:49:37.164Z,99403.77
2023-03-05T12:52:10.053Z,99402.67
2023-03-05T12:54:40.496Z,99403.40
2023-03-05T12:57:34.384Z,99398.02
2023-03-05T13:00:10.407Z,99400.02
2023-03-05T13:02:44.072Z,99392.74
2023-03-05T13:05:31.424Z,99386.86
2023-03-05T13:08:18.839Z,99382.73
2023-03-05T13:10:58.702Z,99381.98
2023-03-05T13:13:28.219Z,99378.59
2023-03-05T13:15:57.459Z,99376.17
2023-03-05T13:18:30.299Z,99376.20
2023-03-05T13:21:04.815Z,99371.81
2023-03-05T13:23:33.637Z,99372.52
2023-03-05T13:26:07.888Z,99371.91
2023-03-05T13:28:37.048Z,99372.84
2023-03-05T13:31:13.371Z,99368.80
2023-03-05T13:33:48.690Z,99367.34
2023-03-05T13:36:15.880Z,99370.27
2023-03-05T13:38:46.990Z,99367.02
2023-03-05T13:41:13.721Z,99365.92
2023-03-05T13:43:46.894Z,99360.41
2023-03-05T13:46:13.716Z,99356.04
2023-03-05T13:48:40.672Z,99354.92
2023-03-05T13:51:09.221Z,99353.09
2023-03-05T13:53:36.006Z,99351.20
2023-03-05T13:56:12.692Z,99354.22
2023-03-05T13:58:54.352Z,99350.45
2023-03-05T14:01:36.410Z,99344.91
2023-03-05T14:04:27.234Z,99346.48
2023-03-05T14:07:07.014Z,99340.39
2023-03-05T14:09:36.753Z,99335.59
2023-03-05T14:12:04.527Z,99335.88
2023-03-05T14:14:35.994Z,99329.53
2023-03-05T14:17:23.238Z,99328.18
2023-03-05T14:19:50.452Z,99323.70
2023-03-05T14:22:52.527Z,99322.79
2023-03-05T14:25:38.961Z,99321.83
2023-03-05T14:28:20.584Z,99322.38
2023-03-05T14:30:50.059Z,99319.20
2023-03-05T14:33:26.531Z,99315.71
2023-03-05T14:35:54.446Z,99312.95
2023-03-05T14:38:25.838Z,99309.61
2023-03-05T14:40:52.951Z,99309.11
2023-03-05T14:43:19.709Z,99304.43
2023-03-05T14:45:47.448Z,99300.91
2023-03-05T14:48:19.848Z,99299.65
2023-03-05T14:50:56.627Z,99296.13
2023-03-05T14:53:39.801Z,99295.09
2023-03-05T14:56:32.361Z,99291.95
2023-03-05T14:58:59.119Z,99291.02
2023-03-05T15:01:26.043Z,99288.54
2023-03-05T15:03:52.908Z,99287.94
2023-03-05T15:06:29.520Z,99285.19
2023-03-05T15:08:56.262Z,99283.79
2023-03-05T15:11:23.136Z,99284.67
2023-03-05T15:13:50.000Z,99284.34
2023-03-05T15:16:18.710Z,99286.08
2023-03-05T15:18:45.961Z,99286.88
2023-03-05T15:21:12.850Z,99287.75
2023-03-05T15:23:39.911Z,99286.79
2023-03-05T15:26:08.966Z,99287.65
2023-03-05T15:28:38.235Z,99286.45
2023-03-05T15:31:06.073Z,99286.06
2023-03-05T15:33:34.491Z,99283.08
2023-03-05T15:36:01.490Z,99280.48
2023-03-05T15:38:28.320Z,99282.45
2023-03-05T15:40:55.339Z,99284.12
2023-03-05T15:43:22.109Z,99288.79
2023-03-05T15:45:48.923Z,99291.11
2023-03-05T15:48:15.848Z,99289.57
2023-03-05T15:50:43.716Z,99288.48
2023-03-05T15:53:15.661Z,99290.60
2023-03-05T15:55:44.690Z,99291.35
2023-03-05T15:58:16.229Z,99293.31
2023-03-05T16:00:43.917Z,99290.55
2023-03-05T16:03:10.818Z,99287.70
2023-03-05T16:05:38.458Z,99287.86
2023-03-05T16:08:06.424Z,99287.71
2023-03-05T16:10:35.160Z,99285.49
2023-03-05T16:13:09.244Z,99291.64
2023-03-05T16:15:38.134Z,99290.22
2023-03-05T16:18:10.103Z,99289.00
2023-03-05T16:20:37.754Z,99288.48
2023-03-05T16:23:05.458Z,99286.81
2023-03-05T16:25:32.734Z,99289.52
2023-03-05T16:27:59.876Z,99286.52
2023-03-05T16:30:26.809Z,99285.58
2023-03-05T16:32:53.992Z,99289.92
2023-03-05T16:35:21.148Z,99289.98
2023-03-05T16:37:47.990Z,99288.66
2023-03-05T16:40:15.280Z,99289.62
2023-03-05T16:42:42.666Z,99291.45
2023-03-05T16:45:10.956Z,99288.70
2023-03-05T16:47:38.447Z,99286.88
2023-03-05T16:50:06.066Z,99282.89
2023-03-05T16:52:32.982Z,99276.96
2023-03-05T16:55:00.169Z,99279.95
2023-03-05T16:57:28.577Z,99282.23
2023-03-05T16:59:56.680Z,99282.46
2023-03-05T17:02:23.866Z,99285.39
2023-03-05T17:04:51.787Z,99287.83
2023-03-05T17:07:18.972Z,99286.41
2023-03-05T17:09:47.894Z,99284.67
2023-03-05T17:12:14.911Z,99286.37
2023-03-05T17:14:41.751Z,99284.45
2023-03-05T17:17:08.600Z,99282.48
2023-03-05T17:19:35.640Z,99280.98
2023-03-05T17:22:03.511Z,99273.43
2023-03-05T17:24:32.342Z,99276.91
2023-03-05T17:27:00.143Z,99275.94
2023-03-05T17:29:26.958Z,99278.33
2023-03-05T17:31:53.983Z,99275.17
2023-03-05T17:34:33.217Z,99277.08
2023-03-05T17:37:03.270Z,99277.10
2023-03-05T17:39:30.449Z,99276.66
2023-03-05T17:41:57.332Z,99271.34
2023-03-05T17:44:24.248Z,99271.69
2023-03-05T17:46:51.000Z,99271.67
2023-03-05T17:49:17.744Z,99273.55
2023-03-05T17:51:44.621Z,99272.79
2023-03-05T17:54:11.477Z,99269.80
2023-03-05T17:56:38.182Z,99270.55
2023-03-05T17:59:05.208Z,99271.58
2023-03-05T18:01:34.214Z,99272.80
2023-03-05T18:04:01.325Z,99271.61
2023-03-05T18:06:28.612Z,99269.05
2023-03-05T18:08:55.370Z,99265.39
2023-03-05T18:11:22.135Z,99263.70
2023-03-05T18:13:50.852Z,99263.81
2023-03-05T18:16:18.177Z,99262.89
2023-03-05T18:18:45.338Z,99260.81
2023-03-05T18:21:12.714Z,99263.20
2023-03-05T18:23:39.790Z,99261.27
2023-03-05T18:26:07.990Z,99257.52
2023-03-05T18:28:36.406Z,99257.84
2023-03-05T18:31:03.828Z,99260.58
2023-03-05T18:33:32.349Z,99259.04
2023-03-05T18:35:59.348Z,99257.80
2023-03-05T18:38:29.051Z,99264.25
2023-03-05T18:40:57.404Z,99266.61
2023-03-05T18:43:24.590Z,99265.24
2023-03-05T18:45:53.798Z,99267.45
2023-03-05T18:48:21.288Z,99264.70
2023-03-05T18:50:52.893Z,99264.44
2023-03-05T18:53:21.158Z,99261.86
2023-03-05T18:55:49.731Z,99260.98
2023-03-05T18:58:18.794Z,99262.10
2023-03-05T19:00:46.658Z,99264.80
2023-03-05T19:03:14.892Z,99267.27
2023-03-05T19:05:42.668Z,99268.47
2023-03-05T19:08:09.546Z,99261.29
2023-03-05T19:10:37.074Z,99259.27
2023-03-05T19:13:40.192Z,99258.70
2023-03-05T19:16:12.162Z,99260.61
2023-03-05T19:18:59.773Z,99259.23
2023-03-05T19:21:30.567Z,99261.84
2023-03-05T19:23:57.565Z,99263.63
2023-03-05T19:26:24.517Z,99263.00
2023-03-05T19:28:51.349Z,99264.49
2023-03-05T19:31:18.423Z,99263.58
2023-03-05T19:33:45.280Z,99262.22
2023-03-05T19:36:12.701Z,99260.89
2023-03-05T19:38:39.644Z,99262.44
2023-03-05T19:41:09.472Z,99264.51
2023-03-05T19:43:37.191Z,99261.48
2023-03-05T19:46:07.547Z,99262.31
2023-03-05T19:48:36.424Z,99258.39
2023-03-05T19:51:11.758Z,99259.27
2023-03-05T19:53:39.519Z,99256.38
2023-03-05T19:56:06.867Z,99253.52
2023-03-05T19:58:34.936Z,99252.42
2023-03-05T20:01:14.939Z,99249.89
2023-03-05T20:03:50.838Z,99247.89
2023-03-05T20:06:18.221Z,99247.19
2023-03-05T20:08:45.379Z,99246.35
2023-03-05T20:11:14.899Z,99243.98
2023-03-05T20:13:42.610Z,99242.63
2023-03-05T20:16:17.210Z,99240.81
2023-03-05T20:18:45.162Z,99239.76
2023-03-05T20:21:20.607Z,99234.88
2023-03-05T20:23:47.428Z,99238.84
2023-03-05T20:26:14.184Z,99240.57
2023-03-05T20:28:41.039Z,99239.39
2023-03-05T20:31:08.084Z,99240.98
2023-03-05T20:33:34.895Z,99235.20
2023-03-05T20:36:01.753Z,99234.94
2023-03-05T20:38:30.084Z,99233.40
2023-03-05T20:41:06.032Z,99238.19
2023-03-05T20:43:35.373Z,99238.12
2023-03-05T20:46:03.292Z,99234.39
2023-03-05T20:48:33.918Z,99234.98
2023-03-05T20:51:15.109Z,99231.45
2023-03-05T20:53:42.658Z,99231.29
2023-03-05T20:56:09.472Z,99234.56
2023-03-05T20:58:37.193Z,99234.95
2023-03-05T21:01:04.708Z,99230.84
2023-03-05T21:03:31.681Z,99233.77
2023-03-05T21:05:58.648Z,99232.72
2023-03-05T21:08:25.377Z,99232.20
2023-03-05T21:10:52.306Z,99230.38
2023-03-05T21:13:19.190Z,99228.88
2023-03-05T21:15:46.035Z,99228.51
2023-03-05T21:18:12.931Z,99226.58
2023-03-05T21:20:40.405Z,99223.13
2023-03-05T21:23:07.415Z,99223.11
2023-03-05T21:25:34.297Z,99218.60
2023-03-05T21:28:04.556Z,99215.71
2023-03-05T21:30:35.553Z,99217.20
2023-03-05T21:33:05.400Z,99213.66
2023-03-05T21:35:32.822Z,99211.27
2023-03-05T21:38:00.919Z,99211.55
2023-03-05T21:40:28.600Z,99198.98
2023-03-05T21:42:55.429Z,99203.83
2023-03-05T21:45:25.977Z,99201.91
2023-03-05T21:47:53.513Z,99203.39
2023-03-05T21:50:21.521Z,99197.70
2023-03-05T21:52:49.014Z,99200.29
2023-03-05T21:55:19.398Z,99195.27
2023-03-05T21:57:46.166Z,99195.49
2023-03-05T22:00:14.185Z,99194.79
2023-03-05T22:02:41.290Z,99197.20
2023-03-05T22:05:12.217Z,99196.20
2023-03-05T22:07:39.930Z,99193.42
2023-03-05T22:10:08.259Z,99195.16
2023-03-05T22:13:02.633Z,99191.94
2023-03-05T22:15:29.401Z,99183.52
2023-03-05T22:17:56.174Z,99183.52
2023-03-05T22:20:23.046Z,99187.45
2023-03-05T22:22:49.858Z,99186.33
2023-03-05T22:25:17.639Z,99185.52
2023-03-05T22:27:44.847Z,99183.11
2023-03-05T22:30:12.679Z,99177.07
2023-03-05T22:32:39.579Z,99177.02
2023-03-05T22:35:10.538Z,99170.11
2023-03-05T22:37:37.331Z,99164.64
2023-03-05T22:40:04.572Z,99160.15
2023-03-05T22:42:31.377Z,99161.58
2023-03-05T22:44:58.690Z,99162.84
2023-03-05T22:47:26.566Z,99170.55
2023-03-05T22:49:53.755Z,99174.86
2023-03-05T22:52:20.593Z,99175.75
2023-03-05T22:54:47.392Z,99174.87
2023-03-05T22:57:14.346Z,99171.38
2023-03-05T22:59:41.103Z,99168.55
2023-03-05T23:02:08.104Z,99167.46
2023-03-05T23:04:49.277Z,99174.02
2023-03-05T23:07:21.946Z,99174.54
2023-03-05T23:10:01.198Z,99177.41
2023-03-05T23:12:31.129Z,99179.27
2023-03-05T23:15:03.233Z,99181.58
2023-03-05T23:17:30.079Z,99184.13
2023-03-05T23:19:56.863Z,99186.43
2023-03-05T23:22:24.153Z,99188.61
2023-03-05T23:24:51.001Z,99193.36
2023-03-05T23:27:18.797Z,99194.12
2023-03-05T23:30:17.133Z,99192.05
2023-03-05T23:33:03.693Z,99192.16
2023-03-05T23:35:34.490Z,99189.94
2023-03-05T23:38:04.060Z,99190.31
2023-03-05T23:40:37.010Z,99184.94
2023-03-05T23:43:03.850Z,99185.27
2023-03-05T23:45:30.946Z,99181.92
2023-03-05T23:47:57.819Z,99180.57
2023-03-05T23:50:31.171Z,99184.48
2023-03-05T23:53:00.002Z,99182.77
2023-03-05T23:55:34.928Z,99184.87
2023-03-05T23:58:02.109Z,99180.42
